Alamosa, CO

11:49 AM MDT on June 27, 2017 (GMT -0600)
San Luis Valley Regional / Bergman Field | | Change Station
Active Advisory: Fire Weather Warning

Elev 7539 ft 37.43 °N, 105.87 °W | Updated 57 minutes ago

Clear
Clear
69 °F
Feels Like 69 °F
N
4
Wind Variable Wind from Variable

Today
High -- | Low -- °F
--% Chance of Precip.
Yesterday
High -- | Low -- °F
Precip. -- in
Pressure 29.99 in
Visibility 10.0 miles
Clouds Clear
Dew Point 45 °F
Humidity 42%
Rainfall 0.00 in
Snow Depth Not available.
5:44 AM 8:28 PM
Waxing Crescent, 18% visible
METAR KALS 271652Z AUTO VRB03KT 10SM CLR 21/07 A3024 RMK AO2 SLP154 T02060072 TSNO
Pressure 29.99 in
Visibility 10.0 miles
Clouds Clear
Dew Point 45 °F
Humidity 42%
Rainfall 0.00 in
Snow Depth Not available.
5:44 AM 8:28 PM
Waxing Crescent, 18% visible
METAR KALS 271652Z AUTO VRB03KT 10SM CLR 21/07 A3024 RMK AO2 SLP154 T02060072 TSNO

Get Your Daily Forecast Email!

Thanks for signing up!

Be on the lookout for a verification email in your inbox.

You'll start receiving severe weather alerts in your inbox..

×

10-Day Weather Forecast

Almanac

Astronomy

Jun. 27, 2017 Rise Set
Actual Time
Civil Twilight
Nautical Twilight
Astronomical Twilight
Moon
Length of Visible Light
Length of Day
Tomorrow will be .
, % of the Moon is Illuminated

Today's Extremes

State Highs State Lows

Community

WunderPhotos

Category 6

Welcome to Category 6. This is the collective home for Weather Underground's featured writeups by Dr. Jeff Masters (right), Bob Henson (left), Chris Burt, and other regular contributors.

Nearby

Air Quality

  Air Quality AQ Index Pollutant
Not available.

Snow Depth

Station Depth Elevation

Earthquake Activity

City Distance Mag. Time & Date
Minimum magnitude displayed is 2.5.

Coastal Water Temperatures

Place Temperature

Stations

Nearby Weather Stations

Station Location Temp. Windchill Dew Point Humidity Wind Precip. Elev Updated Type
                   

Watches & Warnings

Fire Weather Warning
Issued: 4:00 AM MDT Jun. 27, 2017 – National Weather Service

... Red flag warning remains in effect from noon today to 8 PM MDT
this evening for fire weather zones 222 and 224...

* affected area... fire weather zones 222 and 224.

* Winds... west 15 to 20 mph with gusts up to 35 mph.

* Relative humidity... as low as 12 percent.

* Impacts... conditions will be favorable for the rapid ignition,
growth and spread of fires.

Precautionary/preparedness actions...

A red flag warning means that critical fire weather conditions
are either occurring now, or will shortly. A combination of
strong winds, low relative humidity, and warm temperatures can
contribute to extreme fire behavior.



Hodanish